createdAt,value
2019-01-23T00:01:47.086Z,25.00
2019-01-23T00:04:30.554Z,22.13
2019-01-23T00:07:14.242Z,23.50
2019-01-23T00:09:57.483Z,23.23
2019-01-23T00:12:40.455Z,24.53
2019-01-23T00:15:23.453Z,23.13
2019-01-23T00:18:06.903Z,21.37
2019-01-23T00:20:49.681Z,23.20
2019-01-23T00:23:32.627Z,22.53
2019-01-23T00:26:15.701Z,28.57
2019-01-23T00:28:58.814Z,27.53
2019-01-23T00:31:41.404Z,22.07
2019-01-23T00:34:24.647Z,22.50
2019-01-23T00:37:07.387Z,19.93
2019-01-23T00:39:53.973Z,25.27
2019-01-23T00:42:37.281Z,29.80
2019-01-23T00:45:19.994Z,24.70
2019-01-23T00:48:02.872Z,21.70
2019-01-23T00:50:46.329Z,19.30
2019-01-23T00:53:29.238Z,20.87
2019-01-23T00:56:12.044Z,20.80
2019-01-23T00:58:54.742Z,20.13
2019-01-23T01:01:39.789Z,20.70
2019-01-23T01:04:24.409Z,26.87
2019-01-23T01:07:07.704Z,22.90
2019-01-23T01:09:52.641Z,22.03
2019-01-23T01:12:35.333Z,21.73
2019-01-23T01:15:18.758Z,27.75
2019-01-23T01:18:01.994Z,22.87
2019-01-23T01:20:45.537Z,24.00
2019-01-23T01:23:29.000Z,24.03
2019-01-23T01:26:12.266Z,20.40
2019-01-23T01:28:57.660Z,22.60
2019-01-23T01:31:40.972Z,31.37
2019-01-23T01:34:23.969Z,21.07
2019-01-23T01:37:07.019Z,21.63
2019-01-23T01:39:49.684Z,24.27
2019-01-23T01:42:34.212Z,20.50
2019-01-23T01:45:17.337Z,20.57
2019-01-23T01:48:00.491Z,23.03
2019-01-23T01:50:45.943Z,22.40
2019-01-23T01:53:29.397Z,23.67
2019-01-23T01:56:13.889Z,23.30
2019-01-23T01:59:02.694Z,23.20
2019-01-23T02:01:43.746Z,22.27
2019-01-23T02:04:27.773Z,24.90
2019-01-23T02:07:14.120Z,22.63
2019-01-23T02:09:56.864Z,19.70
2019-01-23T02:12:42.064Z,22.03
2019-01-23T02:15:26.644Z,27.30
2019-01-23T02:18:09.464Z,28.33
2019-01-23T02:20:52.581Z,29.20
2019-01-23T02:23:35.865Z,28.63
2019-01-23T02:26:18.462Z,28.10
2019-01-23T02:29:01.486Z,31.00
2019-01-23T02:31:44.728Z,31.60
2019-01-23T02:34:27.885Z,31.50
2019-01-23T02:37:11.234Z,29.53
2019-01-23T02:39:56.341Z,32.67
2019-01-23T02:42:39.256Z,30.87
2019-01-23T02:45:24.120Z,30.10
2019-01-23T02:48:09.620Z,36.33
2019-01-23T02:50:54.106Z,33.33
2019-01-23T02:53:37.509Z,37.40
2019-01-23T02:56:22.592Z,37.63
2019-01-23T02:59:05.569Z,31.77
2019-01-23T03:01:50.725Z,31.73
2019-01-23T03:04:35.265Z,38.40
2019-01-23T03:07:18.811Z,34.43
2019-01-23T03:10:02.050Z,35.43
2019-01-23T03:12:44.904Z,32.80
2019-01-23T03:15:28.540Z,38.47
2019-01-23T03:18:11.821Z,44.27
2019-01-23T03:20:55.294Z,49.23
2019-01-23T03:23:38.162Z,52.47
2019-01-23T03:26:21.000Z,49.00
2019-01-23T03:29:07.135Z,56.33
2019-01-23T03:31:52.171Z,52.83
2019-01-23T03:34:37.325Z,52.40
2019-01-23T03:37:22.727Z,47.67
2019-01-23T03:40:06.075Z,47.23
2019-01-23T03:42:51.348Z,45.40
2019-01-23T03:45:36.161Z,48.13
2019-01-23T03:48:21.083Z,49.50
2019-01-23T03:51:06.364Z,46.03
2019-01-23T03:53:51.192Z,45.17
2019-01-23T03:56:35.460Z,45.63
2019-01-23T03:59:18.407Z,65.97
2019-01-23T04:02:02.066Z,40.33
2019-01-23T04:04:45.428Z,42.83
2019-01-23T04:07:29.613Z,40.97
2019-01-23T04:10:14.982Z,42.43
2019-01-23T04:12:58.351Z,40.83
2019-01-23T04:15:41.857Z,43.57
2019-01-23T04:18:24.687Z,45.83
2019-01-23T04:21:09.338Z,47.97
2019-01-23T04:23:52.769Z,44.20
2019-01-23T04:26:38.046Z,35.97
2019-01-23T04:29:23.430Z,34.07
2019-01-23T04:32:06.240Z,45.93
2019-01-23T04:34:48.925Z,48.43
2019-01-23T04:37:34.417Z,42.23
2019-01-23T04:40:17.781Z,40.43
2019-01-23T04:43:03.252Z,48.20
2019-01-23T04:45:46.839Z,43.47
2019-01-23T04:48:29.966Z,51.60
2019-01-23T04:51:35.022Z,39.93
2019-01-23T04:54:19.439Z,39.13
2019-01-23T04:57:02.821Z,44.00
2019-01-23T04:59:46.957Z,43.10
2019-01-23T05:02:31.541Z,46.67
2019-01-23T05:05:16.387Z,43.93
2019-01-23T05:08:02.963Z,42.10
2019-01-23T05:10:45.778Z,40.07
2019-01-23T05:13:29.917Z,36.37
2019-01-23T05:16:12.844Z,37.43
2019-01-23T05:18:56.178Z,39.83
2019-01-23T05:21:39.364Z,34.00
2019-01-23T05:24:21.937Z,39.23
2019-01-23T05:27:07.421Z,38.13
2019-01-23T05:29:54.857Z,40.53
2019-01-23T05:32:37.289Z,39.47
2019-01-23T05:35:19.993Z,30.67
2019-01-23T05:38:04.645Z,37.63
2019-01-23T05:40:49.314Z,31.20
2019-01-23T05:43:34.565Z,29.30
2019-01-23T05:46:18.926Z,25.67
2019-01-23T05:49:01.757Z,27.90
2019-01-23T05:51:45.118Z,36.20
2019-01-23T05:54:28.808Z,38.90
2019-01-23T05:57:12.022Z,34.20
2019-01-23T06:00:02.271Z,29.13
2019-01-23T06:02:41.276Z,40.20
2019-01-23T06:05:24.464Z,34.57
2019-01-23T06:08:07.813Z,25.67
2019-01-23T06:10:52.719Z,32.83
2019-01-23T06:13:38.088Z,49.23
2019-01-23T06:16:21.107Z,37.67
2019-01-23T06:19:05.236Z,29.33
2019-01-23T06:21:49.718Z,35.20
2019-01-23T06:24:32.793Z,33.13
2019-01-23T06:27:15.878Z,32.10
2019-01-23T06:29:58.739Z,34.93
2019-01-23T06:32:41.809Z,32.03
2019-01-23T06:35:24.867Z,36.67
2019-01-23T06:38:08.135Z,32.83
2019-01-23T06:40:50.926Z,33.93
2019-01-23T06:43:34.189Z,34.03
2019-01-23T06:46:17.098Z,38.23
2019-01-23T06:49:00.013Z,36.37
2019-01-23T06:51:43.313Z,47.90
2019-01-23T06:54:26.628Z,33.60
2019-01-23T06:57:09.730Z,36.50
2019-01-23T06:59:56.438Z,46.28
2019-01-23T07:02:39.334Z,36.73
2019-01-23T07:05:22.615Z,32.90
2019-01-23T07:08:05.640Z,31.13
2019-01-23T07:10:48.982Z,28.30
2019-01-23T07:13:34.632Z,34.27
2019-01-23T07:16:20.604Z,28.53
2019-01-23T07:19:03.429Z,29.30
2019-01-23T07:21:47.058Z,37.00
2019-01-23T07:24:29.774Z,36.00
2019-01-23T07:27:14.782Z,33.73
2019-01-23T07:29:59.822Z,36.03
2019-01-23T07:32:45.269Z,36.20
2019-01-23T07:35:28.070Z,38.80
2019-01-23T07:38:12.697Z,33.80
2019-01-23T07:40:55.682Z,33.73
2019-01-23T07:43:38.379Z,33.40
2019-01-23T07:46:21.642Z,34.07
2019-01-23T07:49:05.059Z,44.83
2019-01-23T07:51:47.964Z,40.00
2019-01-23T07:54:30.840Z,37.43
2019-01-23T07:57:14.027Z,33.70
2019-01-23T07:59:57.012Z,33.47
2019-01-23T08:02:40.436Z,35.20
2019-01-23T08:05:23.283Z,36.13
2019-01-23T08:08:07.184Z,32.47
2019-01-23T08:10:52.688Z,38.30
2019-01-23T08:13:36.553Z,28.20
2019-01-23T08:16:21.925Z,34.20
2019-01-23T08:19:04.674Z,33.33
2019-01-23T08:21:48.175Z,34.40
2019-01-23T08:24:31.302Z,34.73
2019-01-23T08:27:14.565Z,34.30
2019-01-23T08:29:58.138Z,34.20
2019-01-23T08:32:41.603Z,35.07
2019-01-23T08:35:25.841Z,36.57
2019-01-23T08:38:10.905Z,35.90
2019-01-23T08:40:56.481Z,36.43
2019-01-23T08:43:39.073Z,35.60
2019-01-23T08:46:23.704Z,35.37
2019-01-23T08:49:06.390Z,35.50
2019-01-23T08:51:49.838Z,37.03
2019-01-23T08:54:32.598Z,46.40
2019-01-23T08:57:17.069Z,39.40
2019-01-23T09:00:00.616Z,36.97
2019-01-23T09:02:45.921Z,36.50
2019-01-23T09:05:29.466Z,38.67
2019-01-23T09:08:12.575Z,33.63
2019-01-23T09:10:56.550Z,33.93
2019-01-23T09:13:39.718Z,35.23
2019-01-23T09:16:23.644Z,33.00
2019-01-23T09:19:06.614Z,37.33
2019-01-23T09:21:49.765Z,36.63
2019-01-23T09:24:33.294Z,33.80
2019-01-23T09:27:16.801Z,33.93
2019-01-23T09:29:59.622Z,39.35
2019-01-23T09:32:42.360Z,38.83
2019-01-23T09:35:26.914Z,35.53
2019-01-23T09:38:09.558Z,32.63
2019-01-23T09:40:54.061Z,28.83
2019-01-23T09:43:37.271Z,32.63
2019-01-23T09:49:03.587Z,34.70
2019-01-23T09:51:48.884Z,32.10
2019-01-23T09:54:33.561Z,33.90
2019-01-23T09:57:18.963Z,33.23
2019-01-23T10:00:01.698Z,33.67
2019-01-23T10:02:45.013Z,34.13
2019-01-23T10:05:30.248Z,40.00
2019-01-23T10:08:15.253Z,39.50
2019-01-23T10:10:59.398Z,34.70
2019-01-23T10:13:42.147Z,31.50
2019-01-23T10:16:26.577Z,35.13
2019-01-23T10:19:10.292Z,34.20
2019-01-23T10:21:54.405Z,31.77
2019-01-23T10:24:39.511Z,43.02
2019-01-23T10:27:22.477Z,36.33
2019-01-23T10:30:10.269Z,36.53
2019-01-23T10:32:53.210Z,33.67
2019-01-23T10:35:36.747Z,30.13
2019-01-23T10:38:20.866Z,37.30
2019-01-23T10:41:04.410Z,36.87
2019-01-23T10:43:47.823Z,33.37
2019-01-23T10:46:32.457Z,40.73
2019-01-23T10:49:15.566Z,38.03
2019-01-23T10:51:59.126Z,37.40
2019-01-23T10:54:41.921Z,33.93
2019-01-23T10:57:24.610Z,40.27
2019-01-23T11:00:07.203Z,40.53
2019-01-23T11:02:52.645Z,36.93
2019-01-23T11:05:35.310Z,39.27
2019-01-23T11:08:20.819Z,38.13
2019-01-23T11:11:03.735Z,33.23
2019-01-23T11:13:47.029Z,38.73
2019-01-23T11:16:29.908Z,56.37
2019-01-23T11:19:12.763Z,37.37
2019-01-23T11:21:55.621Z,34.97
2019-01-23T11:24:40.502Z,35.40
2019-01-23T11:27:25.619Z,35.50
2019-01-23T11:30:10.888Z,34.73
2019-01-23T11:32:57.605Z,47.53
2019-01-23T11:36:00.791Z,37.07
2019-01-23T11:38:45.097Z,33.03
2019-01-23T11:41:28.078Z,30.40
2019-01-23T11:44:12.062Z,40.20
2019-01-23T11:46:57.156Z,33.90
2019-01-23T11:49:41.528Z,31.70
2019-01-23T11:52:24.979Z,34.87
2019-01-23T11:55:07.609Z,34.70
2019-01-23T11:57:50.325Z,31.23
2019-01-23T12:00:33.984Z,32.70
2019-01-23T12:03:21.074Z,32.97
2019-01-23T12:06:02.860Z,50.43
2019-01-23T12:08:47.931Z,36.57
2019-01-23T12:11:31.205Z,34.33
2019-01-23T12:14:14.304Z,33.20
2019-01-23T12:16:57.885Z,34.07
2019-01-23T12:19:43.324Z,40.23
2019-01-23T12:22:26.157Z,35.30
2019-01-23T12:25:11.611Z,33.50
2019-01-23T12:27:54.868Z,33.03
2019-01-23T12:30:37.966Z,35.47
2019-01-23T12:33:21.129Z,40.33
2019-01-23T12:36:04.362Z,35.47
2019-01-23T12:38:48.612Z,34.90
2019-01-23T12:41:31.698Z,28.43
2019-01-23T12:44:15.247Z,33.57
2019-01-23T12:46:58.728Z,32.27
2019-01-23T12:49:42.393Z,36.43
2019-01-23T12:52:25.201Z,41.03
2019-01-23T12:55:07.895Z,41.30
2019-01-23T12:57:50.931Z,34.03
2019-01-23T13:00:34.009Z,35.87
2019-01-23T13:03:16.775Z,35.47
2019-01-23T13:06:01.156Z,35.87
2019-01-23T13:08:45.616Z,34.37
2019-01-23T13:11:29.223Z,33.90
2019-01-23T13:16:57.594Z,33.93
2019-01-23T13:19:41.204Z,31.40
2019-01-23T13:22:25.270Z,31.00
2019-01-23T13:25:08.084Z,29.07
2019-01-23T13:27:50.990Z,29.60
2019-01-23T13:30:33.615Z,34.93
2019-01-23T13:33:17.535Z,34.37
2019-01-23T13:36:00.956Z,34.17
2019-01-23T13:38:44.217Z,36.63
2019-01-23T13:41:27.556Z,29.73
2019-01-23T13:44:10.800Z,38.13
2019-01-23T13:49:37.529Z,46.23
2019-01-23T13:52:20.464Z,38.97
2019-01-23T13:55:03.166Z,35.33
2019-01-23T13:57:46.192Z,35.57
2019-01-23T14:00:28.927Z,35.20
2019-01-23T14:03:14.400Z,28.70
2019-01-23T14:05:58.614Z,28.07
2019-01-23T14:08:41.281Z,30.00
2019-01-23T14:11:24.638Z,28.80
2019-01-23T14:14:07.577Z,31.40
2019-01-23T14:16:51.018Z,26.37
2019-01-23T14:22:19.512Z,27.53
2019-01-23T14:25:02.285Z,30.83
2019-01-23T14:27:45.366Z,27.43
2019-01-23T14:30:30.505Z,29.33
2019-01-23T14:33:13.315Z,31.52
2019-01-23T14:35:58.254Z,29.47
2019-01-23T14:38:41.778Z,33.27
2019-01-23T14:41:25.051Z,29.43
2019-01-23T14:44:08.067Z,30.63
2019-01-23T14:46:50.777Z,36.87
2019-01-23T14:49:33.833Z,31.13
2019-01-23T14:52:16.623Z,37.03
2019-01-23T14:55:00.910Z,32.30
2019-01-23T14:57:44.368Z,33.47
2019-01-23T15:00:27.774Z,34.20
2019-01-23T15:03:13.413Z,34.20
2019-01-23T15:05:56.827Z,31.20
2019-01-23T15:11:25.629Z,33.17
2019-01-23T15:14:09.544Z,37.60
2019-01-23T15:16:53.622Z,36.87
2019-01-23T15:19:37.142Z,40.47
2019-01-23T15:22:21.303Z,39.00
2019-01-23T15:25:06.419Z,50.03
2019-01-23T15:27:51.354Z,39.20
2019-01-23T15:30:36.710Z,37.27
2019-01-23T15:33:19.967Z,38.37
2019-01-23T15:36:05.473Z,33.63
2019-01-23T15:38:49.087Z,33.07
2019-01-23T15:41:32.824Z,39.13
2019-01-23T15:44:15.718Z,51.58
2019-01-23T15:49:41.179Z,37.73
2019-01-23T15:52:25.866Z,32.80
2019-01-23T15:55:09.162Z,33.83
2019-01-23T15:57:54.514Z,33.30
2019-01-23T16:00:38.045Z,33.23
2019-01-23T16:03:21.712Z,38.20
2019-01-23T16:08:49.603Z,41.17
2019-01-23T16:11:34.990Z,42.03
2019-01-23T16:14:18.359Z,43.03
2019-01-23T16:17:01.097Z,36.73
2019-01-23T16:19:44.353Z,48.98
2019-01-23T16:22:27.381Z,41.70
2019-01-23T16:25:11.032Z,39.63
2019-01-23T16:27:53.975Z,36.73
2019-01-23T16:30:37.416Z,40.10
2019-01-23T16:33:20.814Z,40.97
2019-01-23T16:36:03.699Z,43.23
2019-01-23T16:38:46.286Z,39.00
2019-01-23T16:41:32.057Z,39.10
2019-01-23T16:44:17.229Z,43.73
2019-01-23T16:47:00.061Z,42.77
2019-01-23T16:49:43.294Z,38.47
2019-01-23T16:52:27.432Z,38.97
2019-01-23T16:55:10.897Z,34.03
2019-01-23T16:57:55.099Z,38.70
2019-01-23T17:00:38.435Z,32.77
2019-01-23T17:03:21.178Z,33.37
2019-01-23T17:06:03.968Z,32.50
2019-01-23T17:08:48.436Z,33.63
2019-01-23T17:11:31.309Z,47.87
2019-01-23T17:14:14.025Z,41.57
2019-01-23T17:16:59.304Z,38.93
2019-01-23T17:19:44.288Z,38.23
2019-01-23T17:22:27.944Z,39.27
2019-01-23T17:25:10.601Z,34.57
2019-01-23T17:27:53.917Z,39.10
2019-01-23T17:30:37.332Z,37.37
2019-01-23T17:33:20.849Z,38.30
2019-01-23T17:36:04.370Z,32.97
2019-01-23T17:38:47.841Z,30.47
2019-01-23T17:41:32.240Z,34.37
2019-01-23T17:44:15.515Z,36.80
2019-01-23T17:46:58.474Z,30.43
2019-01-23T17:49:41.288Z,30.43
2019-01-23T17:52:24.068Z,32.60
2019-01-23T17:55:09.389Z,37.37
2019-01-23T17:57:54.369Z,43.10
2019-01-23T18:00:41.792Z,34.13
2019-01-23T18:03:25.004Z,35.33
2019-01-23T18:06:08.134Z,36.83
2019-01-23T18:08:52.121Z,32.80
2019-01-23T18:11:35.090Z,35.37
2019-01-23T18:14:18.256Z,39.23
2019-01-23T18:17:01.109Z,35.37
2019-01-23T18:19:43.992Z,34.87
2019-01-23T18:22:27.189Z,35.53
2019-01-23T18:25:10.460Z,32.93
2019-01-23T18:27:54.871Z,30.10
2019-01-23T18:30:39.714Z,27.97
2019-01-23T18:33:23.232Z,34.95
2019-01-23T18:36:07.208Z,35.43
2019-01-23T18:38:51.838Z,32.03
2019-01-23T18:41:35.101Z,33.47
2019-01-23T18:44:18.402Z,28.00
2019-01-23T18:47:02.376Z,30.13
2019-01-23T18:49:47.914Z,32.67
2019-01-23T18:52:30.746Z,25.77
2019-01-23T18:55:15.924Z,30.57
2019-01-23T18:57:58.999Z,33.83
2019-01-23T19:00:42.409Z,32.23
2019-01-23T19:03:25.994Z,28.40
2019-01-23T19:06:10.989Z,31.67
2019-01-23T19:08:56.262Z,30.43
2019-01-23T19:11:39.463Z,26.33
2019-01-23T19:14:24.590Z,25.60
2019-01-23T19:17:08.082Z,31.67
2019-01-23T19:19:53.567Z,32.70
2019-01-23T19:22:38.209Z,28.23
2019-01-23T19:25:23.752Z,25.80
2019-01-23T19:28:06.474Z,28.83
2019-01-23T19:30:50.607Z,24.77
2019-01-23T19:33:35.309Z,25.37
2019-01-23T19:36:19.063Z,26.87
2019-01-23T19:39:01.979Z,26.67
2019-01-23T19:41:45.242Z,31.17
2019-01-23T19:44:28.535Z,25.53
2019-01-23T19:47:11.373Z,33.10
2019-01-23T19:49:54.229Z,24.23
2019-01-23T19:52:37.006Z,23.43
2019-01-23T19:55:21.785Z,24.13
2019-01-23T19:58:04.952Z,29.17
2019-01-23T20:00:50.575Z,25.80
2019-01-23T20:03:35.203Z,24.53
2019-01-23T20:06:18.942Z,22.83
2019-01-23T20:09:01.738Z,22.80
2019-01-23T20:11:47.588Z,25.90
2019-01-23T20:14:33.076Z,26.90
2019-01-23T20:17:15.700Z,24.37
2019-01-23T20:19:59.014Z,32.17
2019-01-23T20:22:43.815Z,30.33
2019-01-23T20:25:27.206Z,26.90
2019-01-23T20:28:10.289Z,24.80
2019-01-23T20:30:53.981Z,23.77
2019-01-23T20:33:37.410Z,25.33
2019-01-23T20:36:20.566Z,39.00
2019-01-23T20:39:04.627Z,27.77
2019-01-23T20:41:48.650Z,31.20
2019-01-23T20:44:34.078Z,27.27
2019-01-23T20:47:19.492Z,26.37
2019-01-23T20:50:02.265Z,23.20
2019-01-23T20:52:45.147Z,27.73
2019-01-23T20:55:29.685Z,25.70
2019-01-23T20:58:12.697Z,29.93
2019-01-23T21:00:55.510Z,28.37
2019-01-23T21:03:39.924Z,36.73
2019-01-23T21:06:23.490Z,31.73
2019-01-23T21:09:07.590Z,30.93
2019-01-23T21:11:52.697Z,30.33
2019-01-23T21:14:35.621Z,27.60
2019-01-23T21:17:20.168Z,33.27
2019-01-23T21:19:51.804Z,36.90
2019-01-23T21:22:23.376Z,37.57
2019-01-23T21:24:54.911Z,34.58
2019-01-23T21:27:30.022Z,38.73
2019-01-23T21:30:02.513Z,32.10
2019-01-23T21:32:34.033Z,37.17
2019-01-23T21:35:06.313Z,28.77
2019-01-23T21:37:37.795Z,39.83
2019-01-23T21:40:22.041Z,36.33
2019-01-23T21:42:53.686Z,36.73
2019-01-23T21:45:25.229Z,33.67
2019-01-23T21:47:56.931Z,31.47
2019-01-23T21:50:28.524Z,31.80
2019-01-23T21:52:59.989Z,33.33
2019-01-23T21:55:31.554Z,33.70
2019-01-23T21:58:03.210Z,32.30
2019-01-23T22:00:37.405Z,45.17
2019-01-23T22:03:09.792Z,45.87
2019-01-23T22:05:41.472Z,36.33
2019-01-23T22:08:13.976Z,33.77
2019-01-23T22:10:46.417Z,32.83
2019-01-23T22:13:18.163Z,32.93
2019-01-23T22:15:49.646Z,47.10
2019-01-23T22:18:21.214Z,33.00
2019-01-23T22:20:53.047Z,37.90
2019-01-23T22:23:24.560Z,39.67
2019-01-23T22:25:56.205Z,30.33
2019-01-23T22:28:27.733Z,30.03
2019-01-23T22:30:59.311Z,36.33
2019-01-23T22:33:34.181Z,39.05
2019-01-23T22:36:05.987Z,46.15
2019-01-23T22:38:37.509Z,39.10
2019-01-23T22:41:09.073Z,34.20
2019-01-23T22:43:40.657Z,29.13
2019-01-23T22:46:12.124Z,24.93
2019-01-23T22:48:43.659Z,28.87
2019-01-23T22:51:15.177Z,41.98
2019-01-23T22:53:46.592Z,36.20
2019-01-23T22:56:18.055Z,32.93
2019-01-23T22:58:49.571Z,33.40
2019-01-23T23:01:27.547Z,29.23
2019-01-23T23:04:03.367Z,29.03
2019-01-23T23:06:33.001Z,38.35
2019-01-23T23:09:07.504Z,32.03
2019-01-23T23:11:39.063Z,28.57
2019-01-23T23:14:11.453Z,34.43
2019-01-23T23:16:42.962Z,31.87
2019-01-23T23:19:14.419Z,29.50
2019-01-23T23:21:45.908Z,26.37
2019-01-23T23:24:17.559Z,26.33
2019-01-23T23:26:49.137Z,30.73
2019-01-23T23:29:20.620Z,26.80
2019-01-23T23:31:52.079Z,33.50
2019-01-23T23:34:23.549Z,32.83
2019-01-23T23:36:55.082Z,31.17
2019-01-23T23:39:26.668Z,28.70
2019-01-23T23:41:58.214Z,37.03
2019-01-23T23:44:29.746Z,35.57
2019-01-23T23:47:01.217Z,28.43
2019-01-23T23:49:32.688Z,28.50
2019-01-23T23:52:04.615Z,27.57
2019-01-23T23:54:36.215Z,26.30
2019-01-23T23:57:07.741Z,31.17
2019-01-23T23:59:39.301Z,29.10
